sensor_id;sensor_type;location;lat;lon;timestamp;P1;durP1;ratioP1;P2;durP2;ratioP2
49103;SDS011;34915;52.926;11.116;2022-09-25T00:01:06;7.53;;;5.67;;
49103;SDS011;34915;52.926;11.116;2022-09-25T00:03:32;9.20;;;5.93;;
49103;SDS011;34915;52.926;11.116;2022-09-25T00:08:28;11.10;;;5.97;;
49103;SDS011;34915;52.926;11.116;2022-09-25T00:10:55;11.33;;;6.20;;
49103;SDS011;34915;52.926;11.116;2022-09-25T00:13:20;10.00;;;5.80;;
49103;SDS011;34915;52.926;11.116;2022-09-25T00:15:55;7.93;;;5.20;;
49103;SDS011;34915;52.926;11.116;2022-09-25T00:18:22;7.43;;;5.13;;
49103;SDS011;34915;52.926;11.116;2022-09-25T00:21:09;8.53;;;5.70;;
49103;SDS011;34915;52.926;11.116;2022-09-25T00:23:38;9.57;;;6.23;;
49103;SDS011;34915;52.926;11.116;2022-09-25T00:26:05;9.57;;;6.97;;
49103;SDS011;34915;52.926;11.116;2022-09-25T00:28:35;8.57;;;6.77;;
49103;SDS011;34915;52.926;11.116;2022-09-25T00:31:02;9.50;;;6.73;;
49103;SDS011;34915;52.926;11.116;2022-09-25T00:33:30;11.87;;;6.53;;
49103;SDS011;34915;52.926;11.116;2022-09-25T00:36:03;10.37;;;6.97;;
49103;SDS011;34915;52.926;11.116;2022-09-25T00:38:31;10.80;;;7.87;;
49103;SDS011;34915;52.926;11.116;2022-09-25T00:40:58;10.03;;;7.30;;
49103;SDS011;34915;52.926;11.116;2022-09-25T00:43:40;14.10;;;7.50;;
49103;SDS011;34915;52.926;11.116;2022-09-25T00:46:22;11.63;;;7.40;;
49103;SDS011;34915;52.926;11.116;2022-09-25T00:51:38;10.07;;;7.00;;
49103;SDS011;34915;52.926;11.116;2022-09-25T00:54:18;10.17;;;6.70;;
49103;SDS011;34915;52.926;11.116;2022-09-25T00:56:49;10.90;;;7.30;;
49103;SDS011;34915;52.926;11.116;2022-09-25T00:59:21;10.77;;;7.60;;
49103;SDS011;34915;52.926;11.116;2022-09-25T01:01:51;9.80;;;7.20;;
49103;SDS011;34915;52.926;11.116;2022-09-25T01:04:17;10.03;;;6.80;;
49103;SDS011;34915;52.926;11.116;2022-09-25T01:06:42;10.73;;;7.60;;
49103;SDS011;34915;52.926;11.116;2022-09-25T01:09:09;16.10;;;7.70;;
49103;SDS011;34915;52.926;11.116;2022-09-25T01:11:35;10.03;;;7.33;;
49103;SDS011;34915;52.926;11.116;2022-09-25T01:14:03;12.00;;;7.47;;
49103;SDS011;34915;52.926;11.116;2022-09-25T01:30:37;10.80;;;7.30;;
49103;SDS011;34915;52.926;11.116;2022-09-25T01:33:12;9.60;;;7.37;;
49103;SDS011;34915;52.926;11.116;2022-09-25T01:41:17;11.27;;;7.57;;
49103;SDS011;34915;52.926;11.116;2022-09-25T01:47:03;16.13;;;6.97;;
49103;SDS011;34915;52.926;11.116;2022-09-25T01:49:46;10.80;;;7.90;;
49103;SDS011;34915;52.926;11.116;2022-09-25T01:52:20;11.63;;;7.37;;
49103;SDS011;34915;52.926;11.116;2022-09-25T01:54:54;10.90;;;7.63;;
49103;SDS011;34915;52.926;11.116;2022-09-25T02:00:09;9.67;;;6.23;;
49103;SDS011;34915;52.926;11.116;2022-09-25T02:02:40;10.80;;;6.93;;
49103;SDS011;34915;52.926;11.116;2022-09-25T02:05:11;11.80;;;7.17;;
49103;SDS011;34915;52.926;11.116;2022-09-25T02:07:47;12.13;;;7.43;;
49103;SDS011;34915;52.926;11.116;2022-09-25T02:10:24;15.33;;;8.30;;
49103;SDS011;34915;52.926;11.116;2022-09-25T02:13:00;10.47;;;7.33;;
49103;SDS011;34915;52.926;11.116;2022-09-25T02:15:32;14.47;;;7.43;;
49103;SDS011;34915;52.926;11.116;2022-09-25T02:18:13;11.23;;;7.37;;
49103;SDS011;34915;52.926;11.116;2022-09-25T02:27:05;10.03;;;7.03;;
49103;SDS011;34915;52.926;11.116;2022-09-25T02:29:32;10.47;;;6.23;;
49103;SDS011;34915;52.926;11.116;2022-09-25T02:32:04;12.37;;;7.70;;
49103;SDS011;34915;52.926;11.116;2022-09-25T02:34:32;13.07;;;7.77;;
49103;SDS011;34915;52.926;11.116;2022-09-25T02:37:01;10.93;;;7.27;;
49103;SDS011;34915;52.926;11.116;2022-09-25T02:39:29;15.53;;;8.03;;
49103;SDS011;34915;52.926;11.116;2022-09-25T02:56:13;12.30;;;7.07;;
49103;SDS011;34915;52.926;11.116;2022-09-25T02:58:51;12.97;;;7.57;;
49103;SDS011;34915;52.926;11.116;2022-09-25T03:01:21;14.80;;;8.03;;
49103;SDS011;34915;52.926;11.116;2022-09-25T03:03:50;13.07;;;8.10;;
49103;SDS011;34915;52.926;11.116;2022-09-25T03:06:19;9.30;;;6.70;;
49103;SDS011;34915;52.926;11.116;2022-09-25T03:08:48;11.43;;;7.40;;
49103;SDS011;34915;52.926;11.116;2022-09-25T03:11:24;12.90;;;7.83;;
49103;SDS011;34915;52.926;11.116;2022-09-25T03:13:57;12.13;;;8.13;;
49103;SDS011;34915;52.926;11.116;2022-09-25T03:16:43;13.63;;;8.10;;
49103;SDS011;34915;52.926;11.116;2022-09-25T03:19:14;12.43;;;7.53;;
49103;SDS011;34915;52.926;11.116;2022-09-25T03:21:41;14.13;;;8.87;;
49103;SDS011;34915;52.926;11.116;2022-09-25T03:24:07;12.00;;;7.93;;
49103;SDS011;34915;52.926;11.116;2022-09-25T03:26:33;13.53;;;8.63;;
49103;SDS011;34915;52.926;11.116;2022-09-25T03:28:59;11.97;;;7.43;;
49103;SDS011;34915;52.926;11.116;2022-09-25T03:31:26;11.33;;;7.37;;
49103;SDS011;34915;52.926;11.116;2022-09-25T03:33:56;13.30;;;8.37;;
49103;SDS011;34915;52.926;11.116;2022-09-25T03:36:23;12.63;;;7.83;;
49103;SDS011;34915;52.926;11.116;2022-09-25T03:38:56;13.37;;;7.77;;
49103;SDS011;34915;52.926;11.116;2022-09-25T03:41:24;12.37;;;8.20;;
49103;SDS011;34915;52.926;11.116;2022-09-25T03:43:57;14.00;;;7.83;;
49103;SDS011;34915;52.926;11.116;2022-09-25T03:46:24;13.23;;;7.13;;
49103;SDS011;34915;52.926;11.116;2022-09-25T03:48:51;14.17;;;8.40;;
49103;SDS011;34915;52.926;11.116;2022-09-25T03:51:18;11.37;;;7.40;;
49103;SDS011;34915;52.926;11.116;2022-09-25T03:53:46;19.20;;;8.43;;
49103;SDS011;34915;52.926;11.116;2022-09-25T03:56:14;18.77;;;8.87;;
49103;SDS011;34915;52.926;11.116;2022-09-25T03:58:42;11.37;;;7.27;;
49103;SDS011;34915;52.926;11.116;2022-09-25T04:01:08;12.80;;;7.43;;
49103;SDS011;34915;52.926;11.116;2022-09-25T04:03:35;12.43;;;7.53;;
49103;SDS011;34915;52.926;11.116;2022-09-25T04:06:04;14.23;;;7.23;;
49103;SDS011;34915;52.926;11.116;2022-09-25T04:11:00;11.63;;;8.43;;
49103;SDS011;34915;52.926;11.116;2022-09-25T04:13:28;12.97;;;7.70;;
49103;SDS011;34915;52.926;11.116;2022-09-25T04:15:56;11.43;;;7.47;;
49103;SDS011;34915;52.926;11.116;2022-09-25T04:18:23;18.17;;;8.87;;
49103;SDS011;34915;52.926;11.116;2022-09-25T04:20:49;13.53;;;7.63;;
49103;SDS011;34915;52.926;11.116;2022-09-25T04:23:15;14.10;;;8.80;;
49103;SDS011;34915;52.926;11.116;2022-09-25T04:25:41;14.53;;;8.60;;
49103;SDS011;34915;52.926;11.116;2022-09-25T04:28:07;18.17;;;8.83;;
49103;SDS011;34915;52.926;11.116;2022-09-25T04:30:36;14.43;;;7.37;;
49103;SDS011;34915;52.926;11.116;2022-09-25T04:33:02;14.50;;;8.63;;
49103;SDS011;34915;52.926;11.116;2022-09-25T04:35:46;11.63;;;6.83;;
49103;SDS011;34915;52.926;11.116;2022-09-25T04:38:11;14.07;;;7.83;;
49103;SDS011;34915;52.926;11.116;2022-09-25T04:40:37;14.90;;;8.37;;
49103;SDS011;34915;52.926;11.116;2022-09-25T04:43:05;13.07;;;7.93;;
49103;SDS011;34915;52.926;11.116;2022-09-25T04:45:32;11.63;;;7.90;;
49103;SDS011;34915;52.926;11.116;2022-09-25T04:47:59;13.57;;;8.17;;
49103;SDS011;34915;52.926;11.116;2022-09-25T04:50:26;13.00;;;7.37;;
49103;SDS011;34915;52.926;11.116;2022-09-25T04:52:52;13.03;;;7.40;;
49103;SDS011;34915;52.926;11.116;2022-09-25T04:55:20;16.93;;;9.17;;
49103;SDS011;34915;52.926;11.116;2022-09-25T04:57:53;13.93;;;7.73;;
49103;SDS011;34915;52.926;11.116;2022-09-25T05:00:20;12.97;;;7.57;;
49103;SDS011;34915;52.926;11.116;2022-09-25T05:02:48;15.90;;;8.57;;
49103;SDS011;34915;52.926;11.116;2022-09-25T05:05:14;12.77;;;8.27;;
49103;SDS011;34915;52.926;11.116;2022-09-25T05:07:50;14.67;;;8.53;;
49103;SDS011;34915;52.926;11.116;2022-09-25T05:10:16;12.90;;;7.63;;
49103;SDS011;34915;52.926;11.116;2022-09-25T05:12:42;12.63;;;7.73;;
49103;SDS011;34915;52.926;11.116;2022-09-25T05:15:10;13.13;;;7.40;;
49103;SDS011;34915;52.926;11.116;2022-09-25T05:17:36;13.57;;;7.87;;
49103;SDS011;34915;52.926;11.116;2022-09-25T05:20:01;14.33;;;8.27;;
49103;SDS011;34915;52.926;11.116;2022-09-25T05:22:27;15.53;;;8.20;;
49103;SDS011;34915;52.926;11.116;2022-09-25T05:24:54;11.77;;;7.27;;
49103;SDS011;34915;52.926;11.116;2022-09-25T05:27:20;13.73;;;7.50;;
49103;SDS011;34915;52.926;11.116;2022-09-25T05:29:46;13.43;;;7.40;;
49103;SDS011;34915;52.926;11.116;2022-09-25T05:32:15;13.60;;;7.90;;
49103;SDS011;34915;52.926;11.116;2022-09-25T05:34:44;14.10;;;8.37;;
49103;SDS011;34915;52.926;11.116;2022-09-25T05:37:10;11.73;;;6.93;;
49103;SDS011;34915;52.926;11.116;2022-09-25T05:39:35;12.97;;;8.03;;
49103;SDS011;34915;52.926;11.116;2022-09-25T05:42:06;13.77;;;7.53;;
49103;SDS011;34915;52.926;11.116;2022-09-25T05:44:33;15.63;;;7.77;;
49103;SDS011;34915;52.926;11.116;2022-09-25T05:47:00;17.73;;;9.20;;
49103;SDS011;34915;52.926;11.116;2022-09-25T05:49:33;16.33;;;7.87;;
49103;SDS011;34915;52.926;11.116;2022-09-25T05:51:58;13.00;;;8.07;;
49103;SDS011;34915;52.926;11.116;2022-09-25T05:54:24;12.20;;;8.07;;
49103;SDS011;34915;52.926;11.116;2022-09-25T05:56:50;10.53;;;7.10;;
49103;SDS011;34915;52.926;11.116;2022-09-25T05:59:15;12.77;;;7.97;;
49103;SDS011;34915;52.926;11.116;2022-09-25T06:01:43;12.93;;;7.37;;
49103;SDS011;34915;52.926;11.116;2022-09-25T06:04:09;15.63;;;8.07;;
49103;SDS011;34915;52.926;11.116;2022-09-25T06:06:37;13.47;;;8.20;;
49103;SDS011;34915;52.926;11.116;2022-09-25T06:09:03;10.43;;;6.63;;
49103;SDS011;34915;52.926;11.116;2022-09-25T06:11:29;12.87;;;7.60;;
49103;SDS011;34915;52.926;11.116;2022-09-25T06:13:55;15.10;;;7.37;;
49103;SDS011;34915;52.926;11.116;2022-09-25T06:16:21;16.97;;;8.50;;
49103;SDS011;34915;52.926;11.116;2022-09-25T06:18:47;13.33;;;7.47;;
49103;SDS011;34915;52.926;11.116;2022-09-25T06:21:15;13.83;;;7.43;;
49103;SDS011;34915;52.926;11.116;2022-09-25T06:23:40;15.40;;;8.60;;
49103;SDS011;34915;52.926;11.116;2022-09-25T06:26:09;12.93;;;7.83;;
49103;SDS011;34915;52.926;11.116;2022-09-25T06:28:35;17.27;;;8.37;;
49103;SDS011;34915;52.926;11.116;2022-09-25T06:31:01;16.47;;;8.17;;
49103;SDS011;34915;52.926;11.116;2022-09-25T06:33:31;13.43;;;7.80;;
49103;SDS011;34915;52.926;11.116;2022-09-25T06:35:57;15.57;;;8.10;;
49103;SDS011;34915;52.926;11.116;2022-09-25T06:38:22;13.23;;;7.60;;
49103;SDS011;34915;52.926;11.116;2022-09-25T06:40:50;20.63;;;10.50;;
49103;SDS011;34915;52.926;11.116;2022-09-25T06:43:19;18.17;;;8.63;;
49103;SDS011;34915;52.926;11.116;2022-09-25T06:45:46;13.90;;;7.83;;
49103;SDS011;34915;52.926;11.116;2022-09-25T06:48:15;21.23;;;6.97;;
49103;SDS011;34915;52.926;11.116;2022-09-25T06:50:42;14.03;;;7.73;;
49103;SDS011;34915;52.926;11.116;2022-09-25T06:53:13;14.63;;;7.43;;
49103;SDS011;34915;52.926;11.116;2022-09-25T06:55:40;17.20;;;7.67;;
49103;SDS011;34915;52.926;11.116;2022-09-25T06:58:14;17.17;;;7.67;;
49103;SDS011;34915;52.926;11.116;2022-09-25T07:00:46;17.83;;;8.73;;
49103;SDS011;34915;52.926;11.116;2022-09-25T07:03:12;16.13;;;7.87;;
49103;SDS011;34915;52.926;11.116;2022-09-25T07:05:58;16.80;;;7.47;;
49103;SDS011;34915;52.926;11.116;2022-09-25T07:08:24;19.47;;;8.37;;
49103;SDS011;34915;52.926;11.116;2022-09-25T07:10:51;17.80;;;8.27;;
49103;SDS011;34915;52.926;11.116;2022-09-25T07:13:22;19.37;;;8.37;;
49103;SDS011;34915;52.926;11.116;2022-09-25T07:15:54;16.10;;;8.13;;
49103;SDS011;34915;52.926;11.116;2022-09-25T07:18:21;15.37;;;7.53;;
49103;SDS011;34915;52.926;11.116;2022-09-25T07:20:50;14.07;;;7.67;;
49103;SDS011;34915;52.926;11.116;2022-09-25T07:23:17;13.50;;;7.10;;
49103;SDS011;34915;52.926;11.116;2022-09-25T07:25:44;15.70;;;8.30;;
49103;SDS011;34915;52.926;11.116;2022-09-25T07:28:12;12.17;;;7.03;;
49103;SDS011;34915;52.926;11.116;2022-09-25T07:30:40;17.03;;;7.67;;
49103;SDS011;34915;52.926;11.116;2022-09-25T07:33:06;19.40;;;8.00;;
49103;SDS011;34915;52.926;11.116;2022-09-25T07:35:36;17.00;;;7.90;;
49103;SDS011;34915;52.926;11.116;2022-09-25T07:38:04;13.87;;;6.03;;
49103;SDS011;34915;52.926;11.116;2022-09-25T07:40:29;13.73;;;6.77;;
49103;SDS011;34915;52.926;11.116;2022-09-25T07:43:14;14.63;;;7.00;;
49103;SDS011;34915;52.926;11.116;2022-09-25T07:45:39;15.33;;;6.37;;
49103;SDS011;34915;52.926;11.116;2022-09-25T07:48:13;21.57;;;7.50;;
49103;SDS011;34915;52.926;11.116;2022-09-25T07:50:38;18.10;;;7.53;;
49103;SDS011;34915;52.926;11.116;2022-09-25T07:53:06;11.73;;;5.80;;
49103;SDS011;34915;52.926;11.116;2022-09-25T07:55:31;14.83;;;6.40;;
49103;SDS011;34915;52.926;11.116;2022-09-25T07:57:57;15.23;;;6.73;;
49103;SDS011;34915;52.926;11.116;2022-09-25T08:00:23;16.40;;;6.83;;
49103;SDS011;34915;52.926;11.116;2022-09-25T08:02:54;11.87;;;6.20;;
49103;SDS011;34915;52.926;11.116;2022-09-25T08:05:25;10.17;;;5.33;;
49103;SDS011;34915;52.926;11.116;2022-09-25T08:07:52;15.53;;;7.17;;
49103;SDS011;34915;52.926;11.116;2022-09-25T08:10:21;14.27;;;6.93;;
49103;SDS011;34915;52.926;11.116;2022-09-25T08:12:47;14.07;;;7.47;;
49103;SDS011;34915;52.926;11.116;2022-09-25T08:15:14;12.40;;;6.13;;
49103;SDS011;34915;52.926;11.116;2022-09-25T08:17:40;12.67;;;6.80;;
49103;SDS011;34915;52.926;11.116;2022-09-25T08:20:07;10.87;;;5.73;;
49103;SDS011;34915;52.926;11.116;2022-09-25T08:22:33;14.47;;;6.40;;
49103;SDS011;34915;52.926;11.116;2022-09-25T08:24:59;11.73;;;5.40;;
49103;SDS011;34915;52.926;11.116;2022-09-25T08:27:28;8.87;;;4.43;;
49103;SDS011;34915;52.926;11.116;2022-09-25T08:29:55;10.47;;;4.40;;
49103;SDS011;34915;52.926;11.116;2022-09-25T08:32:21;9.93;;;4.40;;
49103;SDS011;34915;52.926;11.116;2022-09-25T08:34:46;11.27;;;4.17;;
49103;SDS011;34915;52.926;11.116;2022-09-25T08:37:13;9.20;;;5.47;;
49103;SDS011;34915;52.926;11.116;2022-09-25T08:39:39;10.07;;;4.57;;
49103;SDS011;34915;52.926;11.116;2022-09-25T08:42:14;10.33;;;4.57;;
49103;SDS011;34915;52.926;11.116;2022-09-25T08:44:51;6.53;;;3.93;;
49103;SDS011;34915;52.926;11.116;2022-09-25T08:47:39;6.33;;;4.70;;
49103;SDS011;34915;52.926;11.116;2022-09-25T08:50:25;13.77;;;9.17;;
49103;SDS011;34915;52.926;11.116;2022-09-25T08:52:52;8.17;;;4.60;;
49103;SDS011;34915;52.926;11.116;2022-09-25T08:55:29;7.93;;;4.80;;
49103;SDS011;34915;52.926;11.116;2022-09-25T08:58:19;10.23;;;4.97;;
49103;SDS011;34915;52.926;11.116;2022-09-25T09:00:50;8.43;;;4.93;;
49103;SDS011;34915;52.926;11.116;2022-09-25T09:03:19;8.37;;;4.70;;
49103;SDS011;34915;52.926;11.116;2022-09-25T09:05:47;12.83;;;5.57;;
49103;SDS011;34915;52.926;11.116;2022-09-25T09:08:21;11.73;;;5.03;;
49103;SDS011;34915;52.926;11.116;2022-09-25T09:11:02;9.97;;;4.77;;
49103;SDS011;34915;52.926;11.116;2022-09-25T09:13:35;10.83;;;4.37;;
49103;SDS011;34915;52.926;11.116;2022-09-25T09:18:50;7.97;;;4.00;;
49103;SDS011;34915;52.926;11.116;2022-09-25T09:51:19;9.23;;;4.17;;
49103;SDS011;34915;52.926;11.116;2022-09-25T09:54:00;9.80;;;4.13;;
49103;SDS011;34915;52.926;11.116;2022-09-25T09:56:32;9.57;;;5.00;;
49103;SDS011;34915;52.926;11.116;2022-09-25T09:59:11;11.93;;;4.43;;
49103;SDS011;34915;52.926;11.116;2022-09-25T10:01:42;6.63;;;4.00;;
49103;SDS011;34915;52.926;11.116;2022-09-25T10:04:13;12.33;;;4.50;;
49103;SDS011;34915;52.926;11.116;2022-09-25T10:06:47;11.10;;;4.50;;
49103;SDS011;34915;52.926;11.116;2022-09-25T10:09:29;12.43;;;4.60;;
49103;SDS011;34915;52.926;11.116;2022-09-25T10:12:00;9.33;;;4.20;;
49103;SDS011;34915;52.926;11.116;2022-09-25T10:14:40;14.10;;;5.77;;
49103;SDS011;34915;52.926;11.116;2022-09-25T10:17:08;12.07;;;5.13;;
49103;SDS011;34915;52.926;11.116;2022-09-25T10:19:52;11.50;;;5.87;;
49103;SDS011;34915;52.926;11.116;2022-09-25T10:22:26;12.40;;;5.83;;
49103;SDS011;34915;52.926;11.116;2022-09-25T10:38:02;11.53;;;5.97;;
49103;SDS011;34915;52.926;11.116;2022-09-25T10:40:35;11.80;;;6.73;;
49103;SDS011;34915;52.926;11.116;2022-09-25T10:43:19;12.97;;;5.67;;
49103;SDS011;34915;52.926;11.116;2022-09-25T10:45:47;12.73;;;6.50;;
49103;SDS011;34915;52.926;11.116;2022-09-25T10:51:17;9.53;;;5.13;;
49103;SDS011;34915;52.926;11.116;2022-09-25T10:53:49;8.40;;;4.40;;
49103;SDS011;34915;52.926;11.116;2022-09-25T11:01:27;6.97;;;4.17;;
49103;SDS011;34915;52.926;11.116;2022-09-25T11:03:59;7.43;;;4.40;;
49103;SDS011;34915;52.926;11.116;2022-09-25T11:06:35;5.93;;;3.87;;
49103;SDS011;34915;52.926;11.116;2022-09-25T11:11:37;6.53;;;3.40;;
49103;SDS011;34915;52.926;11.116;2022-09-25T11:14:06;8.33;;;3.90;;
49103;SDS011;34915;52.926;11.116;2022-09-25T11:16:48;6.27;;;3.67;;
49103;SDS011;34915;52.926;11.116;2022-09-25T11:24:55;5.40;;;3.47;;
49103;SDS011;34915;52.926;11.116;2022-09-25T11:30:01;6.03;;;4.07;;
49103;SDS011;34915;52.926;11.116;2022-09-25T11:32:53;5.03;;;3.50;;
49103;SDS011;34915;52.926;11.116;2022-09-25T11:41:09;5.30;;;2.67;;
49103;SDS011;34915;52.926;11.116;2022-09-25T11:46:20;3.90;;;3.10;;
49103;SDS011;34915;52.926;11.116;2022-09-25T11:51:35;4.13;;;3.00;;
49103;SDS011;34915;52.926;11.116;2022-09-25T11:57:24;3.73;;;3.00;;
49103;SDS011;34915;52.926;11.116;2022-09-25T12:30:20;2.97;;;2.23;;
49103;SDS011;34915;52.926;11.116;2022-09-25T12:38:14;4.67;;;2.80;;
49103;SDS011;34915;52.926;11.116;2022-09-25T12:43:46;4.77;;;3.17;;
49103;SDS011;34915;52.926;11.116;2022-09-25T12:48:55;7.90;;;3.30;;
49103;SDS011;34915;52.926;11.116;2022-09-25T12:51:32;5.33;;;3.27;;
49103;SDS011;34915;52.926;11.116;2022-09-25T12:54:05;6.10;;;3.47;;
49103;SDS011;34915;52.926;11.116;2022-09-25T12:57:03;6.60;;;3.13;;
49103;SDS011;34915;52.926;11.116;2022-09-25T12:59:35;5.83;;;3.03;;
49103;SDS011;34915;52.926;11.116;2022-09-25T13:05:26;5.83;;;3.67;;
49103;SDS011;34915;52.926;11.116;2022-09-25T13:11:03;5.13;;;3.30;;
49103;SDS011;34915;52.926;11.116;2022-09-25T13:13:36;5.07;;;3.47;;
49103;SDS011;34915;52.926;11.116;2022-09-25T13:16:09;41.97;;;17.93;;
49103;SDS011;34915;52.926;11.116;2022-09-25T13:18:38;16.43;;;11.67;;
49103;SDS011;34915;52.926;11.116;2022-09-25T13:21:25;19.77;;;11.10;;
49103;SDS011;34915;52.926;11.116;2022-09-25T13:23:55;16.23;;;9.10;;
49103;SDS011;34915;52.926;11.116;2022-09-25T13:26:22;7.13;;;4.43;;
49103;SDS011;34915;52.926;11.116;2022-09-25T13:31:37;9.03;;;3.47;;
49103;SDS011;34915;52.926;11.116;2022-09-25T13:34:11;5.63;;;3.57;;
49103;SDS011;34915;52.926;11.116;2022-09-25T13:36:40;6.47;;;4.00;;
49103;SDS011;34915;52.926;11.116;2022-09-25T13:39:30;4.33;;;3.37;;
49103;SDS011;34915;52.926;11.116;2022-09-25T14:03:00;4.00;;;2.97;;
49103;SDS011;34915;52.926;11.116;2022-09-25T14:05:30;2.57;;;2.13;;
49103;SDS011;34915;52.926;11.116;2022-09-25T14:08:06;2.77;;;2.43;;
49103;SDS011;34915;52.926;11.116;2022-09-25T14:14:25;3.37;;;2.57;;
49103;SDS011;34915;52.926;11.116;2022-09-25T14:17:20;3.87;;;2.93;;
49103;SDS011;34915;52.926;11.116;2022-09-25T14:19:52;3.33;;;2.67;;
49103;SDS011;34915;52.926;11.116;2022-09-25T14:24:55;3.30;;;2.50;;
49103;SDS011;34915;52.926;11.116;2022-09-25T14:27:21;2.97;;;2.23;;
49103;SDS011;34915;52.926;11.116;2022-09-25T14:29:50;4.63;;;3.77;;
49103;SDS011;34915;52.926;11.116;2022-09-25T14:32:34;2.77;;;2.00;;
49103;SDS011;34915;52.926;11.116;2022-09-25T14:40:45;3.83;;;2.40;;
49103;SDS011;34915;52.926;11.116;2022-09-25T14:43:52;2.33;;;2.13;;
49103;SDS011;34915;52.926;11.116;2022-09-25T14:46:41;1.67;;;1.57;;
49103;SDS011;34915;52.926;11.116;2022-09-25T14:49:12;2.20;;;1.50;;
49103;SDS011;34915;52.926;11.116;2022-09-25T14:51:42;1.70;;;1.60;;
49103;SDS011;34915;52.926;11.116;2022-09-25T14:54:12;2.43;;;1.70;;
49103;SDS011;34915;52.926;11.116;2022-09-25T14:56:46;2.13;;;1.93;;
49103;SDS011;34915;52.926;11.116;2022-09-25T14:59:26;2.30;;;1.90;;
49103;SDS011;34915;52.926;11.116;2022-09-25T15:01:55;1.97;;;1.70;;
49103;SDS011;34915;52.926;11.116;2022-09-25T15:04:32;1.77;;;1.50;;
49103;SDS011;34915;52.926;11.116;2022-09-25T15:07:00;1.70;;;1.60;;
49103;SDS011;34915;52.926;11.116;2022-09-25T15:12:00;2.47;;;2.20;;
49103;SDS011;34915;52.926;11.116;2022-09-25T15:14:39;1.60;;;1.50;;
49103;SDS011;34915;52.926;11.116;2022-09-25T15:17:05;1.60;;;1.50;;
49103;SDS011;34915;52.926;11.116;2022-09-25T15:19:47;2.33;;;1.90;;
49103;SDS011;34915;52.926;11.116;2022-09-25T15:22:18;2.30;;;2.10;;
49103;SDS011;34915;52.926;11.116;2022-09-25T15:24:51;2.37;;;2.10;;
49103;SDS011;34915;52.926;11.116;2022-09-25T15:27:24;2.70;;;2.50;;
49103;SDS011;34915;52.926;11.116;2022-09-25T15:29:52;4.33;;;3.20;;
49103;SDS011;34915;52.926;11.116;2022-09-25T15:37:30;2.50;;;2.13;;
49103;SDS011;34915;52.926;11.116;2022-09-25T15:39:55;2.07;;;1.87;;
49103;SDS011;34915;52.926;11.116;2022-09-25T15:42:33;2.53;;;1.93;;
49103;SDS011;34915;52.926;11.116;2022-09-25T15:44:59;2.17;;;1.97;;
49103;SDS011;34915;52.926;11.116;2022-09-25T15:47:51;4.37;;;3.83;;
49103;SDS011;34915;52.926;11.116;2022-09-25T15:50:22;3.83;;;3.33;;
49103;SDS011;34915;52.926;11.116;2022-09-25T15:52:51;11.67;;;4.93;;
49103;SDS011;34915;52.926;11.116;2022-09-25T15:55:19;17.93;;;6.93;;
49103;SDS011;34915;52.926;11.116;2022-09-25T15:57:45;24.00;;;8.53;;
49103;SDS011;34915;52.926;11.116;2022-09-25T16:00:20;14.50;;;6.33;;
49103;SDS011;34915;52.926;11.116;2022-09-25T16:03:24;14.77;;;7.80;;
49103;SDS011;34915;52.926;11.116;2022-09-25T16:06:12;3.40;;;2.33;;
49103;SDS011;34915;52.926;11.116;2022-09-25T16:08:40;5.60;;;2.53;;
49103;SDS011;34915;52.926;11.116;2022-09-25T16:13:46;2.20;;;1.67;;
49103;SDS011;34915;52.926;11.116;2022-09-25T16:16:25;1.37;;;1.17;;
49103;SDS011;34915;52.926;11.116;2022-09-25T16:18:54;6.27;;;3.67;;
49103;SDS011;34915;52.926;11.116;2022-09-25T16:23:57;1.73;;;1.40;;
49103;SDS011;34915;52.926;11.116;2022-09-25T16:26:26;1.63;;;0.93;;
49103;SDS011;34915;52.926;11.116;2022-09-25T16:29:05;1.57;;;1.47;;
49103;SDS011;34915;52.926;11.116;2022-09-25T16:31:40;1.93;;;1.83;;
49103;SDS011;34915;52.926;11.116;2022-09-25T16:34:18;8.17;;;4.00;;
49103;SDS011;34915;52.926;11.116;2022-09-25T16:36:52;4.70;;;3.07;;
49103;SDS011;34915;52.926;11.116;2022-09-25T16:39:21;7.63;;;4.00;;
49103;SDS011;34915;52.926;11.116;2022-09-25T16:41:52;8.77;;;3.80;;
49103;SDS011;34915;52.926;11.116;2022-09-25T16:49:21;1.87;;;0.93;;
49103;SDS011;34915;52.926;11.116;2022-09-25T16:51:48;1.77;;;1.03;;
49103;SDS011;34915;52.926;11.116;2022-09-25T16:54:15;1.80;;;1.20;;
49103;SDS011;34915;52.926;11.116;2022-09-25T16:56:43;1.27;;;1.13;;
49103;SDS011;34915;52.926;11.116;2022-09-25T17:01:43;5.47;;;0.90;;
49103;SDS011;34915;52.926;11.116;2022-09-25T17:04:11;1.33;;;1.07;;
49103;SDS011;34915;52.926;11.116;2022-09-25T17:06:39;1.73;;;0.90;;
49103;SDS011;34915;52.926;11.116;2022-09-25T17:09:10;0.93;;;0.93;;
49103;SDS011;34915;52.926;11.116;2022-09-25T17:11:38;1.50;;;1.00;;
49103;SDS011;34915;52.926;11.116;2022-09-25T17:14:05;0.90;;;0.90;;
49103;SDS011;34915;52.926;11.116;2022-09-25T17:16:31;1.97;;;1.40;;
49103;SDS011;34915;52.926;11.116;2022-09-25T17:18:58;1.70;;;1.60;;
49103;SDS011;34915;52.926;11.116;2022-09-25T17:21:23;1.67;;;1.10;;
49103;SDS011;34915;52.926;11.116;2022-09-25T17:23:49;2.03;;;1.83;;
49103;SDS011;34915;52.926;11.116;2022-09-25T17:26:16;1.77;;;1.63;;
49103;SDS011;34915;52.926;11.116;2022-09-25T17:28:45;2.93;;;2.60;;
49103;SDS011;34915;52.926;11.116;2022-09-25T17:31:11;2.37;;;1.97;;
49103;SDS011;34915;52.926;11.116;2022-09-25T17:33:40;1.67;;;1.50;;
49103;SDS011;34915;52.926;11.116;2022-09-25T17:36:08;0.90;;;0.90;;
49103;SDS011;34915;52.926;11.116;2022-09-25T17:38:35;1.83;;;1.40;;
49103;SDS011;34915;52.926;11.116;2022-09-25T17:41:02;1.10;;;1.00;;
49103;SDS011;34915;52.926;11.116;2022-09-25T17:43:30;8.10;;;3.30;;
49103;SDS011;34915;52.926;11.116;2022-09-25T17:45:56;6.40;;;3.33;;
49103;SDS011;34915;52.926;11.116;2022-09-25T17:48:23;9.07;;;4.53;;
49103;SDS011;34915;52.926;11.116;2022-09-25T17:50:55;5.53;;;3.03;;
49103;SDS011;34915;52.926;11.116;2022-09-25T17:53:30;2.23;;;1.77;;
49103;SDS011;34915;52.926;11.116;2022-09-25T17:55:58;1.30;;;1.20;;
49103;SDS011;34915;52.926;11.116;2022-09-25T17:58:25;2.43;;;1.53;;
49103;SDS011;34915;52.926;11.116;2022-09-25T18:00:52;2.67;;;1.70;;
49103;SDS011;34915;52.926;11.116;2022-09-25T18:03:18;1.90;;;1.17;;
49103;SDS011;34915;52.926;11.116;2022-09-25T18:05:45;1.53;;;1.10;;
49103;SDS011;34915;52.926;11.116;2022-09-25T18:15:15;1.67;;;1.10;;
49103;SDS011;34915;52.926;11.116;2022-09-25T18:17:41;2.37;;;1.20;;
49103;SDS011;34915;52.926;11.116;2022-09-25T18:20:09;1.20;;;1.10;;
49103;SDS011;34915;52.926;11.116;2022-09-25T18:22:55;0.70;;;0.70;;
49103;SDS011;34915;52.926;11.116;2022-09-25T18:25:21;1.33;;;1.23;;
49103;SDS011;34915;52.926;11.116;2022-09-25T18:27:46;1.27;;;1.00;;
49103;SDS011;34915;52.926;11.116;2022-09-25T18:30:13;1.30;;;1.20;;
49103;SDS011;34915;52.926;11.116;2022-09-25T18:32:42;2.70;;;1.30;;
49103;SDS011;34915;52.926;11.116;2022-09-25T18:35:08;2.67;;;1.30;;
49103;SDS011;34915;52.926;11.116;2022-09-25T18:37:34;1.30;;;1.20;;
49103;SDS011;34915;52.926;11.116;2022-09-25T18:40:00;15.50;;;10.10;;
49103;SDS011;34915;52.926;11.116;2022-09-25T18:42:26;3.50;;;3.13;;
49103;SDS011;34915;52.926;11.116;2022-09-25T18:44:51;2.70;;;1.50;;
49103;SDS011;34915;52.926;11.116;2022-09-25T18:47:17;1.10;;;1.00;;
49103;SDS011;34915;52.926;11.116;2022-09-25T18:49:43;0.80;;;0.80;;